Los Angeles, CA

06:13 PM PST on Δεκέμβριος 18, 2014 (GMT -0800)
Los Angeles Downtown | Change Station
CLOSE
Current Station
Airport
Location: Los Angeles Downtown,
Elevation: 184 ft
Nearby Weather Stations

Elev 184 ft 34.02 °N, 118.29 °W | Updated 26 minutes ago

Λίγο Νεφελώδης
Λίγο Νεφελώδης
57 ° F
Feels Like 57 ° F
N
0
Ανεμος Μεταβλητός Ανεμος from Βόρειος

Σήμερα
High -- | Low -- ° F
--% Chance of Precip.
Yesterday
High -- | Low -- ° F
Precip. -- in
6:53 AM 4:46 PM
Μηνίσκος, 11% visible
Ατμοσφαιρική Πίεση 30.17 in
Ορατότητα 10.0 Μίλια
Σύννεφα Few 6500 ft
Σημείο Δρόσου 49 ° F
Υγρασία 74%
Rainfall 0.00 in
Snow Depth Not available.
Υπεριώδης ακτινοβολία (UV) 0 out of 12
Pollen 3.10 out of 12
Air Quality Not available.
Flu Activity Not available.
METAR KCQT 190147Z AUTO 00000KT 10SM FEW065 14/09 A3017 RMK AO2 SLP216 T01390094

More Conditions Fewer Conditions

Ατμοσφαιρική Πίεση 30.17 in
Ορατότητα 10.0 Μίλια
Σύννεφα Few 6500 ft
Σημείο Δρόσου 49 ° F
Υγρασία 74%
Rainfall 0.00 in
Snow Depth Not available.
Υπεριώδης ακτινοβολία (UV) 0 out of 12
Pollen 3.10 out of 12
Air Quality Not available.
Flu Activity Not available.
METAR KCQT 190147Z AUTO 00000KT 10SM FEW065 14/09 A3017 RMK AO2 SLP216 T01390094

More Conditions Fewer Conditions

10-Day Weather Forecast

Almanac

Αστρονομία

Dec. 18, 2014 Rise Set
Actual Time
Civil Twilight
Nautical Twilight
Astronomical Twilight
Moon
Length Of Visible Light
Διάρκεια ημέρας
Tomorrow will be .
, % of the Moon is Illuminated

Today's Extremes

State Highs State Lows

Community

WunderPhotos

Upload Photos

1,779,036 photos uploaded!

WunderBlogs® & News

Nearby

Air Quality

  Air Quality AQ Index Pollutant
Not available.

Snow Depth

Station Depth Elevation

Earthquake Activity

City Distance Mag. Time & Date
Minimum magnitude displayed is 2.5.

Coastal Water Temperatures

Τοποθεσία Θερμοκρασία

Nearby Weather Stations